Time;durP1;ratioP1;P1;durP2;ratioP2;P2;SDS_P1;SDS_P2;PMS_P1;PMS_P2;Temp;Humidity;BMP_temperature;BMP_pressure;BME280_temperature;BME280_humidity;BME280_pressure;Samples;Min_cycle;Max_cycle;Signal;HPM_P1;HPM_P2
2021/10/13 00:01:37;;;;;;;4.97;2.90;;;;;;;5.72;100.00;100785.47;5052259;28;20203;-81
2021/10/13 00:04:04;;;;;;;3.67;2.73;;;;;;;5.72;100.00;100783.72;5047066;28;20231;-80
2021/10/13 00:06:30;;;;;;;3.23;2.80;;;;;;;5.70;100.00;100785.44;5044473;28;20227;-81
2021/10/13 00:08:58;;;;;;;4.77;3.40;;;;;;;5.65;100.00;100791.44;5049600;28;20224;-81
2021/10/13 00:11:24;;;;;;;6.63;3.70;;;;;;;5.66;100.00;100785.44;5053769;28;20204;-81
2021/10/13 00:13:51;;;;;;;4.53;3.43;;;;;;;5.70;100.00;100780.28;5046163;28;20198;-79
2021/10/13 00:16:17;;;;;;;5.90;3.77;;;;;;;5.73;100.00;100782.91;5047222;28;20253;-81
2021/10/13 00:18:44;;;;;;;5.00;3.57;;;;;;;5.71;100.00;100794.97;5062297;28;20222;-80
2021/10/13 00:21:10;;;;;;;4.37;3.73;;;;;;;5.68;100.00;100799.25;5064983;28;20721;-78
2021/10/13 00:23:36;;;;;;;4.00;3.70;;;;;;;5.66;100.00;100803.56;5053198;28;20224;-77
2021/10/13 00:26:04;;;;;;;4.40;3.60;;;;;;;5.60;100.00;100793.16;5048139;28;20202;-81
2021/10/13 00:28:31;;;;;;;4.93;3.07;;;;;;;5.65;100.00;100801.81;5051433;28;20238;-81
2021/10/13 00:30:57;;;;;;;8.67;3.90;;;;;;;5.58;100.00;100804.34;5054489;28;20229;-79
2021/10/13 00:33:23;;;;;;;5.60;3.37;;;;;;;5.64;100.00;100806.13;5051967;28;20236;-79
2021/10/13 00:35:50;;;;;;;3.93;3.50;;;;;;;5.65;100.00;100809.56;5052553;28;20202;-79
2021/10/13 00:38:16;;;;;;;6.50;4.37;;;;;;;5.64;100.00;100815.63;5054797;28;20220;-78
2021/10/13 00:40:42;;;;;;;7.80;4.00;;;;;;;5.72;100.00;100820.00;5051543;28;20200;-79
2021/10/13 00:43:10;;;;;;;6.27;4.63;;;;;;;5.69;100.00;100832.94;5054326;28;20659;-82
2021/10/13 00:45:37;;;;;;;6.50;3.93;;;;;;;5.63;100.00;100834.59;5053309;28;20255;-82
2021/10/13 00:48:03;;;;;;;5.90;3.53;;;;;;;5.64;100.00;100844.13;5044161;28;20214;-81
2021/10/13 00:50:30;;;;;;;5.90;5.30;;;;;;;5.57;100.00;100844.06;5041263;28;20202;-82
2021/10/13 00:52:57;;;;;;;5.40;4.70;;;;;;;5.57;100.00;100845.81;5040786;28;20253;-82
2021/10/13 00:55:23;;;;;;;5.57;5.07;;;;;;;5.58;100.00;100840.63;5041552;28;20213;-82
2021/10/13 00:57:52;;;;;;;6.20;5.57;;;;;;;5.54;100.00;100849.22;5053402;28;20318;-81
2021/10/13 01:00:23;;;;;;;7.67;5.10;;;;;;;5.53;100.00;100844.91;5042486;28;20205;-81
2021/10/13 01:02:59;;;;;;;6.00;5.40;;;;;;;5.52;100.00;100839.72;5051689;28;20208;-79
2021/10/13 01:05:46;;;;;;;7.37;5.73;;;;;;;5.52;100.00;100843.16;5056909;28;20628;-79
2021/10/13 01:08:19;;;;;;;7.10;5.97;;;;;;;5.52;100.00;100830.22;5055582;28;20214;-79
2021/10/13 01:10:54;;;;;;;10.33;7.23;;;;;;;5.52;100.00;100842.28;5044445;28;20204;-79
2021/10/13 01:13:29;;;;;;;10.10;8.40;;;;;;;5.56;100.00;100839.72;5042688;28;20206;-79
2021/10/13 01:16:07;;;;;;;9.70;8.70;;;;;;;5.55;100.00;100843.19;5040203;28;20194;-79
2021/10/13 01:18:39;;;;;;;15.90;9.73;;;;;;;5.61;100.00;100846.66;5039411;28;20655;-79
2021/10/13 01:21:12;;;;;;;9.00;7.07;;;;;;;5.63;100.00;100853.63;5055479;28;20659;-79
2021/10/13 01:24:16;;;;;;;10.37;9.37;;;;;;;5.66;100.00;100863.13;5051180;28;20201;-78
2021/10/13 01:26:47;;;;;;;10.93;9.80;;;;;;;5.64;100.00;100868.28;5008630;28;20201;-79
2021/10/13 01:29:20;;;;;;;12.57;9.63;;;;;;;5.64;100.00;100872.59;5038831;28;20214;-78
2021/10/13 01:31:49;;;;;;;10.37;9.37;;;;;;;5.67;100.00;100859.66;5053176;28;20206;-79
2021/10/13 01:34:22;;;;;;;11.17;9.20;;;;;;;5.67;100.00;100872.59;5047452;28;20248;-79
2021/10/13 01:36:54;;;;;;;11.87;10.60;;;;;;;5.67;100.00;100876.09;5043029;28;20465;-79
2021/10/13 01:39:22;;;;;;;10.27;9.17;;;;;;;5.70;100.00;100883.88;5056763;28;20246;-79
2021/10/13 01:41:51;;;;;;;12.17;10.87;;;;;;;5.72;100.00;100889.06;5039599;28;20204;-79
2021/10/13 01:44:21;;;;;;;14.77;10.70;;;;;;;5.73;100.00;100896.84;5046643;28;20204;-80
2021/10/13 01:46:48;;;;;;;12.13;10.93;;;;;;;5.72;100.00;100902.03;5046028;28;20259;-80
2021/10/13 01:49:16;;;;;;;10.33;9.43;;;;;;;5.78;100.00;100897.75;5052533;28;20639;-79
2021/10/13 01:51:45;;;;;;;13.40;11.10;;;;;;;5.86;100.00;100909.91;5038820;28;20847;-79
2021/10/13 01:54:13;;;;;;;10.87;9.87;;;;;;;5.95;100.00;100910.03;5047834;28;20196;-79
2021/10/13 01:56:41;;;;;;;10.53;9.40;;;;;;;6.07;100.00;100920.47;5054282;28;20675;-79
2021/10/13 01:59:09;;;;;;;12.57;11.17;;;;;;;5.99;100.00;100927.31;5035174;28;20286;-78
2021/10/13 02:01:37;;;;;;;15.70;10.97;;;;;;;5.94;100.00;100934.16;5045221;28;20205;-79
2021/10/13 02:04:08;;;;;;;14.73;11.80;;;;;;;5.93;100.00;100932.44;5047590;28;20201;-79
2021/10/13 02:06:37;;;;;;;12.80;11.50;;;;;;;5.94;100.00;100931.56;5044183;28;20202;-79
2021/10/13 02:09:04;;;;;;;12.47;11.27;;;;;;;5.94;100.00;100926.38;5042428;28;20222;-79
2021/10/13 02:11:32;;;;;;;12.27;10.83;;;;;;;5.93;100.00;100935.88;5036147;28;20202;-79
2021/10/13 02:14:04;;;;;;;12.40;11.17;;;;;;;5.94;100.00;100937.59;5044329;28;20660;-79
2021/10/13 02:16:33;;;;;;;14.83;13.23;;;;;;;5.82;100.00;100942.69;5037741;28;20246;-79
2021/10/13 02:19:02;;;;;;;13.27;11.97;;;;;;;5.80;100.00;100934.03;5037199;28;20247;-80
2021/10/13 02:21:31;;;;;;;13.63;11.83;;;;;;;5.82;100.00;100936.66;5037903;28;20687;-80
2021/10/13 02:23:59;;;;;;;14.03;12.10;;;;;;;5.83;100.00;100936.66;5037406;28;20243;-79
2021/10/13 02:26:30;;;;;;;12.00;11.00;;;;;;;5.92;100.00;100928.94;5038236;28;20295;-79
2021/10/13 02:29:02;;;;;;;11.80;10.70;;;;;;;5.92;100.00;100939.31;5047119;28;20221;-80
2021/10/13 02:31:28;;;;;;;13.20;10.73;;;;;;;5.90;100.00;100941.03;5048450;28;20242;-79
2021/10/13 02:33:56;;;;;;;13.73;11.53;;;;;;;5.88;100.00;100947.06;5054980;28;20612;-79
2021/10/13 02:36:24;;;;;;;12.63;11.07;;;;;;;5.80;100.00;100948.72;5051022;28;20249;-79
2021/10/13 02:38:50;;;;;;;12.43;11.17;;;;;;;5.71;100.00;100950.38;5036178;28;20222;-79
2021/10/13 02:41:16;;;;;;;13.37;12.07;;;;;;;5.69;100.00;100948.59;5040097;28;20204;-79
2021/10/13 02:43:43;;;;;;;16.43;12.33;;;;;;;5.69;100.00;100946.00;5056424;28;20250;-80
2021/10/13 02:46:15;;;;;;;12.90;11.60;;;;;;;5.62;100.00;100942.50;5047663;28;20261;-79
2021/10/13 02:48:45;;;;;;;13.53;12.23;;;;;;;5.59;100.00;100939.91;5046374;28;20630;-79
2021/10/13 02:51:16;;;;;;;15.43;12.27;;;;;;;5.66;100.00;100944.28;5056250;28;20550;-79
2021/10/13 02:53:48;;;;;;;13.63;12.30;;;;;;;5.65;100.00;100946.84;5049956;28;20532;-79
2021/10/13 02:56:21;;;;;;;13.60;12.07;;;;;;;5.69;100.00;100954.66;5037953;28;20220;-79
2021/10/13 02:58:57;;;;;;;13.30;12.10;;;;;;;5.69;100.00;100958.97;5036873;28;20229;-80
2021/10/13 03:01:28;;;;;;;14.87;12.90;;;;;;;5.66;100.00;100956.34;5045360;28;20672;-79
2021/10/13 03:03:59;;;;;;;14.03;12.63;;;;;;;5.69;100.00;100949.50;5045103;28;20206;-79
2021/10/13 03:06:29;;;;;;;14.20;12.77;;;;;;;5.79;100.00;100953.03;5038114;28;20190;-79
2021/10/13 03:08:58;;;;;;;12.87;11.57;;;;;;;5.87;100.00;100956.56;5036475;28;20286;-79
2021/10/13 03:11:26;;;;;;;13.73;12.43;;;;;;;5.88;100.00;100962.59;5037888;28;20198;-79
2021/10/13 03:13:54;;;;;;;13.43;12.23;;;;;;;5.82;100.00;100978.09;5039993;28;20204;-79
2021/10/13 03:16:21;;;;;;;13.83;12.63;;;;;;;5.80;100.00;100975.47;5039932;28;20207;-80
2021/10/13 03:18:48;;;;;;;14.30;12.80;;;;;;;5.76;100.00;100986.66;5048383;28;20229;-79
2021/10/13 03:21:15;;;;;;;13.57;12.27;;;;;;;5.78;100.00;100988.41;5046565;28;20217;-79
2021/10/13 03:23:42;;;;;;;13.23;12.13;;;;;;;5.77;100.00;100991.00;5040820;28;20236;-79
2021/10/13 03:26:12;;;;;;;16.00;12.87;;;;;;;5.85;100.00;100979.00;5040517;28;20625;-78
2021/10/13 03:28:40;;;;;;;14.00;12.70;;;;;;;5.95;100.00;100990.34;5039696;28;20290;-79
2021/10/13 03:31:07;;;;;;;13.63;12.33;;;;;;;5.86;100.00;100996.25;5046958;28;20205;-79
2021/10/13 03:33:36;;;;;;;13.60;12.20;;;;;;;5.92;100.00;101000.63;5043523;28;20205;-79
2021/10/13 03:36:03;;;;;;;15.37;13.70;;;;;;;5.85;100.00;101006.63;5040224;28;20205;-80
2021/10/13 03:38:29;;;;;;;15.07;13.20;;;;;;;5.89;100.00;101005.81;5046907;28;20237;-79
2021/10/13 03:40:56;;;;;;;13.53;12.23;;;;;;;5.85;100.00;101012.66;5047137;28;20205;-79
2021/10/13 03:43:25;;;;;;;13.53;12.33;;;;;;;5.81;100.00;101015.19;5040052;28;20201;-79
2021/10/13 03:45:51;;;;;;;14.33;12.93;;;;;;;5.87;100.00;101016.16;5047555;28;20213;-79
2021/10/13 03:48:18;;;;;;;14.63;13.33;;;;;;;5.80;100.00;101024.69;5046525;28;20213;-79
2021/10/13 03:50:44;;;;;;;13.90;12.50;;;;;;;5.74;100.00;101027.22;5039157;28;20222;-80
2021/10/13 03:53:11;;;;;;;14.27;12.87;;;;;;;5.76;100.00;101028.13;5055426;28;20204;-79
2021/10/13 03:55:37;;;;;;;14.43;12.93;;;;;;;5.81;100.00;101026.44;5043893;28;20225;-79
2021/10/13 03:58:04;;;;;;;13.60;12.20;;;;;;;5.93;100.00;101030.88;5058220;28;20249;-79
2021/10/13 04:00:31;;;;;;;13.47;12.20;;;;;;;6.01;100.00;101033.59;5054060;28;20201;-79
2021/10/13 04:02:58;;;;;;;14.13;12.70;;;;;;;5.99;100.00;101050.84;5045425;28;20275;-79
2021/10/13 04:05:24;;;;;;;12.80;11.47;;;;;;;6.08;100.00;101061.28;5041600;28;20259;-79
2021/10/13 04:07:50;;;;;;;13.37;12.00;;;;;;;6.05;100.00;101072.50;5052590;28;20227;-79
2021/10/13 04:10:17;;;;;;;12.00;11.00;;;;;;;6.03;100.00;101089.75;5039345;28;20205;-79
2021/10/13 04:12:43;;;;;;;12.50;11.30;;;;;;;5.91;100.00;101087.00;5045355;28;20204;-79
2021/10/13 04:15:11;;;;;;;13.63;12.23;;;;;;;5.83;100.00;101079.16;5038664;28;20709;-79
2021/10/13 04:17:39;;;;;;;14.20;12.33;;;;;;;5.93;100.00;101080.13;5038299;28;20251;-79
2021/10/13 04:20:10;;;;;;;12.87;11.70;;;;;;;5.93;100.00;101091.34;5044914;28;20196;-79
2021/10/13 04:22:37;;;;;;;13.00;11.80;;;;;;;5.85;100.00;101085.22;5038143;28;20209;-79
2021/10/13 04:25:04;;;;;;;14.60;13.20;;;;;;;5.88;100.00;101080.03;5037835;28;20251;-79
2021/10/13 04:27:30;;;;;;;13.13;12.03;;;;;;;5.97;100.00;101089.69;5045955;28;20317;-79
2021/10/13 04:29:56;;;;;;;13.70;12.23;;;;;;;5.94;100.00;101094.78;5037778;28;20254;-78
2021/10/13 04:32:23;;;;;;;13.77;12.50;;;;;;;5.83;100.00;101099.88;5048339;28;20211;-79
2021/10/13 04:34:51;;;;;;;13.20;11.90;;;;;;;5.84;100.00;101091.22;5049905;28;20263;-79
2021/10/13 04:37:18;;;;;;;13.13;11.83;;;;;;;5.78;100.00;101093.75;5054373;28;20224;-79
2021/10/13 04:39:45;;;;;;;13.80;12.20;;;;;;;5.75;100.00;101091.16;5048429;28;20786;-79
2021/10/13 04:42:11;;;;;;;18.30;13.90;;;;;;;5.68;100.00;101092.78;5041531;28;20206;-79
2021/10/13 04:44:37;;;;;;;13.93;12.73;;;;;;;5.53;100.00;101083.13;5037597;28;20208;-79
2021/10/13 04:47:04;;;;;;;14.87;13.47;;;;;;;5.47;100.00;101085.66;5036738;28;20201;-79
2021/10/13 04:49:31;;;;;;;14.70;12.43;;;;;;;5.45;100.00;101074.41;5052490;28;20204;-79
2021/10/13 04:51:58;;;;;;;14.30;12.83;;;;;;;5.48;100.00;101076.16;5045346;28;20599;-79
2021/10/13 04:54:25;;;;;;;14.13;12.50;;;;;;;5.45;100.00;101083.88;5037242;28;20224;-79
2021/10/13 04:56:51;;;;;;;13.17;11.97;;;;;;;5.55;100.00;101091.78;5036716;28;20214;-78
2021/10/13 04:59:18;;;;;;;14.30;13.00;;;;;;;5.58;100.00;101107.34;5036702;28;20695;-79
2021/10/13 05:01:44;;;;;;;13.77;12.67;;;;;;;5.65;100.00;101126.44;5049391;28;20210;-79
2021/10/13 05:04:10;;;;;;;13.20;11.97;;;;;;;5.50;100.00;101146.94;5046312;28;20711;-79
2021/10/13 05:06:37;;;;;;;12.50;11.50;;;;;;;5.58;100.00;101156.53;5044691;28;20204;-79
2021/10/13 05:09:05;;;;;;;11.50;10.50;;;;;;;5.67;100.00;101162.69;5044542;28;20239;-79
2021/10/13 05:11:31;;;;;;;10.77;9.87;;;;;;;5.72;99.48;101181.75;5035923;28;20213;-79
2021/10/13 05:13:57;;;;;;;11.63;10.63;;;;;;;5.75;98.28;101202.53;5036683;28;20206;-79
2021/10/13 05:16:24;;;;;;;10.10;9.23;;;;;;;5.77;97.59;101224.16;5036706;28;20208;-79
2021/10/13 05:18:50;;;;;;;11.70;10.70;;;;;;;5.80;97.53;101249.22;5055089;28;20223;-79
2021/10/13 05:21:16;;;;;;;12.33;11.03;;;;;;;5.68;98.73;101221.44;5047177;28;20624;-79
2021/10/13 05:23:43;;;;;;;11.17;10.03;;;;;;;5.76;98.73;101197.34;5037401;28;20351;-79
2021/10/13 05:26:11;;;;;;;11.83;10.67;;;;;;;5.81;98.40;101197.44;5041324;28;20227;-79
2021/10/13 05:28:37;;;;;;;11.43;10.37;;;;;;;5.83;97.91;101206.09;5037771;28;20228;-78
2021/10/13 05:31:03;;;;;;;13.23;11.17;;;;;;;5.81;99.04;101192.25;5045392;28;20259;-79
2021/10/13 05:33:30;;;;;;;10.30;9.50;;;;;;;5.83;98.91;101190.53;5048106;28;20239;-78
2021/10/13 05:35:56;;;;;;;12.47;11.33;;;;;;;5.83;98.93;101197.44;5050110;28;20200;-78
2021/10/13 05:38:22;;;;;;;12.50;11.30;;;;;;;5.80;98.87;101194.81;5039275;28;20285;-79
2021/10/13 05:40:49;;;;;;;10.87;9.97;;;;;;;5.81;99.37;101189.66;5049126;28;20208;-78
2021/10/13 05:43:17;;;;;;;14.60;11.37;;;;;;;5.68;99.83;101175.66;5033926;28;20672;-78
2021/10/13 05:45:43;;;;;;;20.83;12.30;;;;;;;5.66;100.00;101132.47;5050398;28;20670;-78
2021/10/13 05:48:10;;;;;;;13.47;11.60;;;;;;;5.70;100.00;101116.13;5034542;28;20221;-77
2021/10/13 05:50:36;;;;;;;16.10;12.67;;;;;;;5.72;100.00;101099.72;5035020;28;20209;-78
2021/10/13 05:53:02;;;;;;;12.23;11.10;;;;;;;5.71;100.00;101102.34;5050716;28;20335;-78
2021/10/13 05:55:29;;;;;;;13.43;12.17;;;;;;;5.66;100.00;101091.91;5042111;28;20202;-78
2021/10/13 05:57:55;;;;;;;15.10;12.27;;;;;;;5.62;100.00;101086.66;5034195;28;20226;-78
2021/10/13 06:00:27;;;;;;;12.67;11.37;;;;;;;5.72;100.00;101086.78;5036441;28;20228;-78
2021/10/13 06:02:53;;;;;;;12.87;11.57;;;;;;;5.77;100.00;101094.63;5045579;28;20212;-78
2021/10/13 06:05:20;;;;;;;13.47;12.07;;;;;;;5.70;100.00;101103.16;5041974;28;20246;-78
2021/10/13 06:07:46;;;;;;;14.40;10.90;;;;;;;5.82;100.00;101117.97;5033606;28;20229;-78
2021/10/13 06:10:12;;;;;;;12.43;11.13;;;;;;;5.80;100.00;101130.91;5040788;28;20205;-78
2021/10/13 06:12:39;;;;;;;11.43;10.33;;;;;;;5.85;100.00;101152.56;5033878;28;20700;-78
2021/10/13 06:15:06;;;;;;;14.87;12.37;;;;;;;5.86;100.00;101168.97;5050282;28;20713;-78
2021/10/13 06:17:35;;;;;;;13.30;10.63;;;;;;;5.67;100.00;101186.88;5043577;28;20232;-78
2021/10/13 06:20:01;;;;;;;18.53;11.60;;;;;;;5.65;100.00;101185.09;5037668;28;20279;-78
2021/10/13 06:22:28;;;;;;;16.20;10.83;;;;;;;5.73;100.00;101176.59;5033214;28;20247;-78
2021/10/13 06:24:56;;;;;;;13.30;12.00;;;;;;;5.75;100.00;101179.22;5043866;28;20195;-78
2021/10/13 06:27:23;;;;;;;14.33;11.73;;;;;;;5.73;100.00;101168.84;5042493;28;20302;-78
2021/10/13 06:29:49;;;;;;;12.40;11.20;;;;;;;5.71;100.00;101180.91;5033639;28;20674;-79
2021/10/13 06:32:15;;;;;;;14.13;12.40;;;;;;;5.73;100.00;101162.78;5037141;28;20201;-78
2021/10/13 06:34:43;;;;;;;13.13;11.83;;;;;;;5.93;100.00;101156.13;5041892;28;20467;-79
2021/10/13 06:37:09;;;;;;;12.83;11.53;;;;;;;6.03;100.00;101158.84;5048566;28;20625;-78
2021/10/13 06:39:37;;;;;;;14.53;13.13;;;;;;;6.08;100.00;101154.56;5034423;28;20225;-78
2021/10/13 06:42:04;;;;;;;13.23;11.97;;;;;;;6.19;100.00;101155.56;5035990;28;20207;-79
2021/10/13 06:44:30;;;;;;;11.33;10.33;;;;;;;6.33;100.00;101163.50;5042325;28;20206;-79
2021/10/13 06:46:56;;;;;;;12.73;10.87;;;;;;;6.34;100.00;101179.06;5043904;28;20205;-78
2021/10/13 06:49:23;;;;;;;12.40;11.30;;;;;;;6.41;100.00;101195.56;5053520;28;20228;-79
2021/10/13 06:51:50;;;;;;;12.60;10.40;;;;;;;6.41;100.00;101205.94;5040852;28;20687;-79
2021/10/13 06:54:17;;;;;;;12.77;11.50;;;;;;;6.44;100.00;101215.44;5057609;28;20197;-79
2021/10/13 06:56:43;;;;;;;12.73;11.63;;;;;;;6.53;99.90;101229.38;5042108;28;20202;-79
2021/10/13 06:59:10;;;;;;;17.73;16.10;;;;;;;6.63;99.02;101245.06;5044004;28;20228;-79
2021/10/13 07:01:36;;;;;;;12.27;11.07;;;;;;;6.52;99.52;101248.41;5040356;28;20210;-81
2021/10/13 07:04:02;;;;;;;13.83;12.53;;;;;;;6.60;99.67;101256.28;5037343;28;20213;-80
2021/10/13 07:06:29;;;;;;;13.17;11.40;;;;;;;6.69;100.00;101245.13;5039843;28;20201;-81
2021/10/13 07:08:56;;;;;;;13.50;11.97;;;;;;;6.64;99.56;101245.09;5046643;28;20217;-81
2021/10/13 07:11:23;;;;;;;13.40;12.00;;;;;;;6.69;100.00;101237.34;5046538;28;20212;-80
2021/10/13 07:13:49;;;;;;;13.23;11.73;;;;;;;6.74;100.00;101223.56;5054528;28;20208;-84
2021/10/13 07:16:16;;;;;;;16.80;11.80;;;;;;;6.84;100.00;101227.09;5044943;28;20201;-79
2021/10/13 07:18:42;;;;;;;14.07;11.23;;;;;;;6.76;100.00;101214.06;5041996;28;20220;-83
2021/10/13 07:21:09;;;;;;;14.63;13.23;;;;;;;6.78;100.00;101213.19;5047284;28;20225;-81
2021/10/13 07:23:35;;;;;;;15.10;12.73;;;;;;;6.76;100.00;101205.41;5046205;28;20209;-81
2021/10/13 07:26:03;;;;;;;15.13;11.77;;;;;;;6.80;100.00;101196.81;5046550;28;20216;-83
2021/10/13 07:28:30;;;;;;;13.07;11.77;;;;;;;6.85;100.00;101194.25;5046094;28;20221;-83
2021/10/13 07:30:56;;;;;;;13.93;11.43;;;;;;;6.93;100.00;101208.13;5048888;28;20232;-82
2021/10/13 07:33:23;;;;;;;12.10;10.70;;;;;;;6.97;100.00;101218.56;5048731;28;20215;-81
2021/10/13 07:35:49;;;;;;;12.57;11.27;;;;;;;6.89;100.00;101216.75;5052940;28;20194;-85
2021/10/13 07:38:16;;;;;;;12.20;11.10;;;;;;;6.99;100.00;101210.78;5052506;28;20706;-83
2021/10/13 07:40:43;;;;;;;11.63;10.40;;;;;;;7.07;100.00;101208.25;5037612;28;20274;-85
2021/10/13 07:43:11;;;;;;;11.53;10.43;;;;;;;7.18;100.00;101204.03;5038266;28;20255;-83
2021/10/13 07:45:37;;;;;;;10.70;9.73;;;;;;;7.19;100.00;101200.56;5036462;28;20198;-83
2021/10/13 07:48:04;;;;;;;11.53;9.77;;;;;;;7.25;100.00;101203.19;5041793;28;20780;-82
2021/10/13 07:50:30;;;;;;;13.53;9.63;;;;;;;7.31;100.00;101208.44;5040636;28;20204;-83
2021/10/13 07:52:57;;;;;;;12.33;9.53;;;;;;;7.39;100.00;101202.41;5040317;28;20285;-82
2021/10/13 07:55:23;;;;;;;10.93;8.67;;;;;;;7.48;100.00;101205.94;5044102;28;20264;-82
2021/10/13 07:57:50;;;;;;;10.03;9.13;;;;;;;7.34;100.00;101207.59;5044383;28;20256;-83
2021/10/13 08:00:19;;;;;;;10.60;8.90;;;;;;;7.45;100.00;101215.44;5042802;28;20247;-84
2021/10/13 08:02:47;;;;;;;10.40;9.60;;;;;;;7.47;100.00;101225.00;5050250;28;20268;-84
2021/10/13 08:05:14;;;;;;;12.13;9.97;;;;;;;7.56;100.00;101229.38;5037386;28;20206;-83
2021/10/13 08:07:40;;;;;;;11.20;10.10;;;;;;;7.51;100.00;101250.13;5045124;28;20218;-83
2021/10/13 08:10:07;;;;;;;11.50;10.40;;;;;;;7.42;100.00;101242.28;5046125;28;20195;-80
2021/10/13 08:12:33;;;;;;;10.37;9.33;;;;;;;7.46;100.00;101233.66;5045206;28;20201;-83
2021/10/13 08:15:00;;;;;;;10.67;9.57;;;;;;;7.50;100.00;101235.41;5038018;28;20213;-81
2021/10/13 08:17:27;;;;;;;9.53;8.63;;;;;;;7.52;100.00;101235.41;5046414;28;20222;-80
2021/10/13 08:19:54;;;;;;;9.73;8.93;;;;;;;7.63;100.00;101238.97;5047732;28;20228;-82
2021/10/13 08:22:21;;;;;;;9.33;6.73;;;;;;;7.79;100.00;101252.03;5044838;28;20217;-81
2021/10/13 08:24:48;;;;;;;9.17;6.40;;;;;;;7.83;100.00;101274.56;5051152;28;20613;-84
2021/10/13 08:27:14;;;;;;;7.90;7.10;;;;;;;7.99;99.50;101305.00;5058097;28;20205;-83
2021/10/13 08:29:41;;;;;;;7.47;6.87;;;;;;;7.96;99.04;101330.97;5050155;28;20201;-83
2021/10/13 08:32:07;;;;;;;7.63;6.83;;;;;;;8.10;98.77;101337.13;5047190;28;20210;-83
2021/10/13 08:34:35;;;;;;;7.80;7.00;;;;;;;8.00;97.89;101363.06;5047016;28;20209;-83
2021/10/13 08:37:01;;;;;;;7.57;6.77;;;;;;;8.02;97.44;101372.59;5041595;28;20205;-83
2021/10/13 08:39:28;;;;;;;7.60;6.07;;;;;;;8.16;97.87;101363.16;5040615;28;20232;-81
2021/10/13 08:41:54;;;;;;;6.77;6.17;;;;;;;8.26;97.33;101371.03;5043096;28;20201;-80
2021/10/13 08:44:20;;;;;;;7.93;6.93;;;;;;;8.43;97.59;101386.78;5047341;28;20251;-81
2021/10/13 08:46:47;;;;;;;11.17;7.47;;;;;;;8.58;96.66;101391.16;5042602;28;20197;-80
2021/10/13 08:49:13;;;;;;;8.10;7.40;;;;;;;8.70;96.31;101412.94;5042749;28;20217;-80
2021/10/13 08:51:41;;;;;;;7.73;6.97;;;;;;;8.67;95.04;101451.06;5042415;28;20209;-79
2021/10/13 08:54:13;;;;;;;7.20;6.60;;;;;;;8.57;94.54;101475.31;5041864;28;20583;-80
2021/10/13 08:56:40;;;;;;;7.33;6.70;;;;;;;8.58;94.70;101485.72;5045145;28;20244;-80
2021/10/13 08:59:06;;;;;;;5.93;5.43;;;;;;;8.62;94.54;101492.72;5039848;28;20222;-81
2021/10/13 09:01:32;;;;;;;7.13;6.53;;;;;;;8.65;94.67;101494.44;5047995;28;20279;-79
2021/10/13 09:04:00;;;;;;;7.53;6.93;;;;;;;8.48;94.42;101469.19;5051004;28;20197;-80
2021/10/13 09:06:29;;;;;;;9.10;7.23;;;;;;;8.74;95.80;101435.50;5044413;28;20202;-80
2021/10/13 09:08:59;;;;;;;8.10;7.40;;;;;;;8.65;94.36;101466.69;5046908;28;20659;-79
2021/10/13 09:11:31;;;;;;;8.37;7.23;;;;;;;8.79;94.37;101484.97;5042489;28;20202;-81
2021/10/13 09:14:14;;;;;;;6.60;6.10;;;;;;;8.68;93.78;101490.13;5046441;28;20214;-80
2021/10/13 09:16:59;;;;;;;8.83;6.03;;;;;;;8.61;93.93;101501.34;5045792;28;20243;-79
2021/10/13 09:19:28;;;;;;;7.63;6.67;;;;;;;8.59;94.46;101466.66;5043716;28;20640;-80
2021/10/13 09:21:56;;;;;;;7.83;7.03;;;;;;;8.37;94.66;101475.16;5044716;28;20220;-80
2021/10/13 09:24:26;;;;;;;8.23;7.53;;;;;;;8.49;95.71;101428.44;5044892;28;20205;-83
2021/10/13 09:26:53;;;;;;;7.50;6.73;;;;;;;8.50;95.07;101428.44;5046847;28;20202;-80
2021/10/13 09:29:19;;;;;;;5.33;4.90;;;;;;;8.71;95.32;101438.06;5046038;28;20236;-80
2021/10/13 09:31:54;;;;;;;5.97;5.13;;;;;;;8.64;93.54;101511.81;5045810;28;20352;-80
2021/10/13 09:34:21;;;;;;;7.20;6.57;;;;;;;8.77;93.77;101504.94;5046661;28;20200;-79
2021/10/13 09:36:58;;;;;;;12.53;11.43;;;;;;;8.73;93.81;101504.03;5046651;28;20215;-79
2021/10/13 09:39:27;;;;;;;5.80;5.30;;;;;;;8.68;93.02;101525.69;5045983;28;20216;-79
2021/10/13 09:41:59;;;;;;;5.00;4.60;;;;;;;8.78;92.95;101526.59;5045828;28;20270;-78
2021/10/13 09:44:25;;;;;;;9.73;6.63;;;;;;;8.77;92.35;101545.72;5046749;28;20274;-79
2021/10/13 09:46:57;;;;;;;5.13;4.83;;;;;;;8.72;91.90;101561.28;5046093;28;20209;-79
2021/10/13 09:49:29;;;;;;;7.20;5.73;;;;;;;8.63;92.13;101548.22;5046658;28;20723;-81
2021/10/13 09:52:04;;;;;;;6.33;5.37;;;;;;;8.73;92.30;101548.28;5046086;28;20213;-79
2021/10/13 09:54:32;;;;;;;8.53;6.27;;;;;;;8.57;92.04;101559.47;5046149;28;20205;-79
2021/10/13 09:56:59;;;;;;;5.53;5.03;;;;;;;8.75;92.70;101538.75;5046097;28;20745;-82
2021/10/13 09:59:25;;;;;;;6.57;5.83;;;;;;;8.87;92.71;101537.09;5045003;28;20286;-80
2021/10/13 10:01:55;;;;;;;5.97;5.40;;;;;;;8.82;91.81;101551.81;5043862;28;20212;-80
2021/10/13 10:04:24;;;;;;;6.47;5.20;;;;;;;8.74;92.18;101557.84;4346500;28;10000743;-80
2021/10/13 10:06:53;;;;;;;6.23;5.63;;;;;;;8.81;92.20;101553.53;5041665;28;20263;-80
2021/10/13 10:09:21;;;;;;;6.30;5.70;;;;;;;8.67;91.45;101579.47;5040590;28;20221;-81
2021/10/13 10:11:50;;;;;;;6.20;5.63;;;;;;;8.74;91.59;101572.56;5043153;28;20290;-79
2021/10/13 10:14:42;;;;;;;6.70;6.10;;;;;;;8.80;92.21;101562.22;5042843;28;20651;-82
2021/10/13 10:17:09;;;;;;;6.33;5.73;;;;;;;8.89;91.98;101553.59;5041740;28;20293;-82
2021/10/13 10:19:39;;;;;;;7.20;6.50;;;;;;;8.85;91.15;101575.25;5042411;28;20212;-80
2021/10/13 10:22:10;;;;;;;6.03;5.43;;;;;;;8.97;91.50;101572.72;5042756;28;20564;-80
2021/10/13 10:24:38;;;;;;;35.47;21.50;;;;;;;9.08;91.61;101560.66;5042400;28;20205;-81
2021/10/13 10:27:31;;;;;;;21.63;16.97;;;;;;;8.98;89.58;101618.75;5042938;28;20212;-79
2021/10/13 10:30:01;;;;;;;6.40;5.77;;;;;;;9.02;89.91;101617.91;5027427;28;20739;-80
2021/10/13 10:32:28;;;;;;;34.70;28.77;;;;;;;9.10;90.61;101604.94;5042599;28;20711;-81
2021/10/13 10:35:15;;;;;;;9.70;8.67;;;;;;;9.28;91.04;101584.19;5042843;28;20232;-81
2021/10/13 10:37:44;;;;;;;6.73;6.13;;;;;;;9.37;90.67;101588.56;5042345;28;20229;-83
2021/10/13 10:40:16;;;;;;;6.87;5.93;;;;;;;9.43;90.42;101580.78;5042496;28;20265;-79
2021/10/13 10:42:54;;;;;;;9.90;5.33;;;;;;;9.46;89.51;101613.81;5043459;28;20209;-81
2021/10/13 10:45:22;;;;;;;6.20;5.60;;;;;;;9.54;89.17;101628.63;5044954;28;20205;-81
2021/10/13 10:47:55;;;;;;;5.80;5.30;;;;;;;9.62;88.98;101628.66;5043270;28;20301;-79
2021/10/13 10:51:00;;;;;;;7.50;6.00;;;;;;;9.63;87.97;101658.19;5044215;28;20204;-82
2021/10/13 10:53:32;;;;;;;6.60;4.57;;;;;;;9.67;86.84;101691.22;5034948;28;20304;-82
2021/10/13 10:56:16;;;;;;;5.87;4.93;;;;;;;9.77;87.43;101685.19;5044246;28;20216;-81
2021/10/13 10:58:57;;;;;;;6.73;3.47;;;;;;;9.82;86.26;101711.31;5042173;28;20229;-80
2021/10/13 11:01:24;;;;;;;3.47;3.17;;;;;;;9.84;85.34;101751.31;5042403;28;20237;-82
2021/10/13 11:03:51;;;;;;;5.63;3.57;;;;;;;9.95;86.24;101733.97;5042641;28;20267;-81
2021/10/13 11:06:19;;;;;;;4.50;4.10;;;;;;;10.01;85.29;101740.94;5042658;28;20603;-82
2021/10/13 11:08:53;;;;;;;42.40;25.40;;;;;;;10.08;85.74;101738.34;5042169;28;20233;-81
2021/10/13 11:11:20;;;;;;;12.33;5.83;;;;;;;10.22;84.13;101764.50;5042828;28;20255;-81
2021/10/13 11:13:59;;;;;;;19.10;16.33;;;;;;;10.29;83.63;101804.56;5044299;28;20216;-81
2021/10/13 11:16:30;;;;;;;3.30;3.00;;;;;;;10.47;83.35;101801.19;5044517;28;20239;-83
2021/10/13 11:19:11;;;;;;;6.10;3.23;;;;;;;10.62;82.88;101840.38;5044622;28;20229;-82
2021/10/13 11:21:38;;;;;;;4.37;2.10;;;;;;;10.75;81.08;101867.44;5042441;28;20221;-80
2021/10/13 11:24:05;;;;;;;6.50;2.10;;;;;;;10.79;80.53;101903.13;5043276;28;20232;-82